sensor_id;sensor_type;location;lat;lon;timestamp;temperature;humidity
66213;SHT31;53015;50.046;8.238;2023-10-09T00:01:56;14.48;94.38
66213;SHT31;53015;50.046;8.238;2023-10-09T00:04:22;14.54;94.43
66213;SHT31;53015;50.046;8.238;2023-10-09T00:06:49;14.48;94.44
66213;SHT31;53015;50.046;8.238;2023-10-09T00:09:14;14.37;94.62
66213;SHT31;53015;50.046;8.238;2023-10-09T00:11:40;14.44;94.87
66213;SHT31;53015;50.046;8.238;2023-10-09T00:14:05;14.47;94.52
66213;SHT31;53015;50.046;8.238;2023-10-09T00:16:31;14.47;94.36
66213;SHT31;53015;50.046;8.238;2023-10-09T00:18:56;14.38;94.86
66213;SHT31;53015;50.046;8.238;2023-10-09T00:21:22;14.47;94.72
66213;SHT31;53015;50.046;8.238;2023-10-09T00:23:49;14.43;94.91
66213;SHT31;53015;50.046;8.238;2023-10-09T00:26:14;14.44;94.75
66213;SHT31;53015;50.046;8.238;2023-10-09T00:28:39;14.43;94.43
66213;SHT31;53015;50.046;8.238;2023-10-09T00:31:05;14.41;94.83
66213;SHT31;53015;50.046;8.238;2023-10-09T00:33:30;14.26;95.03
66213;SHT31;53015;50.046;8.238;2023-10-09T00:35:56;14.29;95.30
66213;SHT31;53015;50.046;8.238;2023-10-09T00:38:21;14.19;95.14
66213;SHT31;53015;50.046;8.238;2023-10-09T00:40:49;14.06;95.96
66213;SHT31;53015;50.046;8.238;2023-10-09T00:43:14;14.12;95.65
66213;SHT31;53015;50.046;8.238;2023-10-09T00:45:40;14.24;95.49
66213;SHT31;53015;50.046;8.238;2023-10-09T00:48:06;14.29;95.28
66213;SHT31;53015;50.046;8.238;2023-10-09T00:50:32;14.38;95.05
66213;SHT31;53015;50.046;8.238;2023-10-09T00:52:59;14.38;95.01
66213;SHT31;53015;50.046;8.238;2023-10-09T00:55:24;14.40;94.89
66213;SHT31;53015;50.046;8.238;2023-10-09T00:57:51;14.34;94.95
66213;SHT31;53015;50.046;8.238;2023-10-09T01:00:17;14.33;95.14
66213;SHT31;53015;50.046;8.238;2023-10-09T01:02:43;14.32;94.98
66213;SHT31;53015;50.046;8.238;2023-10-09T01:05:09;14.30;95.17
66213;SHT31;53015;50.046;8.238;2023-10-09T01:07:35;14.33;95.49
66213;SHT31;53015;50.046;8.238;2023-10-09T01:10:02;14.27;95.48
66213;SHT31;53015;50.046;8.238;2023-10-09T01:12:27;14.30;95.41
66213;SHT31;53015;50.046;8.238;2023-10-09T01:14:54;14.33;95.41
66213;SHT31;53015;50.046;8.238;2023-10-09T01:17:19;14.24;95.38
66213;SHT31;53015;50.046;8.238;2023-10-09T01:19:45;14.24;95.44
66213;SHT31;53015;50.046;8.238;2023-10-09T01:22:10;14.17;95.57
66213;SHT31;53015;50.046;8.238;2023-10-09T01:24:37;14.20;95.67
66213;SHT31;53015;50.046;8.238;2023-10-09T01:27:03;14.29;95.18
66213;SHT31;53015;50.046;8.238;2023-10-09T01:29:28;14.24;95.30
66213;SHT31;53015;50.046;8.238;2023-10-09T01:31:55;14.29;95.12
66213;SHT31;53015;50.046;8.238;2023-10-09T01:34:21;14.23;94.95
66213;SHT31;53015;50.046;8.238;2023-10-09T01:36:47;14.23;95.20
66213;SHT31;53015;50.046;8.238;2023-10-09T01:39:12;14.30;94.83
66213;SHT31;53015;50.046;8.238;2023-10-09T01:41:39;14.29;94.95
66213;SHT31;53015;50.046;8.238;2023-10-09T01:44:05;14.27;94.86
66213;SHT31;53015;50.046;8.238;2023-10-09T01:46:30;14.17;95.13
66213;SHT31;53015;50.046;8.238;2023-10-09T01:48:55;14.10;95.16
66213;SHT31;53015;50.046;8.238;2023-10-09T01:51:21;14.15;95.21
66213;SHT31;53015;50.046;8.238;2023-10-09T01:53:46;14.26;94.93
66213;SHT31;53015;50.046;8.238;2023-10-09T01:56:12;14.26;94.79
66213;SHT31;53015;50.046;8.238;2023-10-09T01:58:39;14.24;94.97
66213;SHT31;53015;50.046;8.238;2023-10-09T02:01:04;14.22;94.98
66213;SHT31;53015;50.046;8.238;2023-10-09T02:03:30;14.27;94.77
66213;SHT31;53015;50.046;8.238;2023-10-09T02:05:55;14.34;94.77
66213;SHT31;53015;50.046;8.238;2023-10-09T02:08:21;14.36;94.79
66213;SHT31;53015;50.046;8.238;2023-10-09T02:10:46;14.33;94.75
66213;SHT31;53015;50.046;8.238;2023-10-09T02:13:11;14.30;94.99
66213;SHT31;53015;50.046;8.238;2023-10-09T02:15:39;14.30;94.88
66213;SHT31;53015;50.046;8.238;2023-10-09T02:18:05;14.22;94.92
66213;SHT31;53015;50.046;8.238;2023-10-09T02:20:31;14.15;95.30
66213;SHT31;53015;50.046;8.238;2023-10-09T02:22:56;14.23;95.37
66213;SHT31;53015;50.046;8.238;2023-10-09T02:25:23;14.20;95.14
66213;SHT31;53015;50.046;8.238;2023-10-09T02:27:49;14.26;95.20
66213;SHT31;53015;50.046;8.238;2023-10-09T02:30:14;14.19;95.25
66213;SHT31;53015;50.046;8.238;2023-10-09T02:32:42;14.15;95.58
66213;SHT31;53015;50.046;8.238;2023-10-09T02:35:09;14.22;95.59
66213;SHT31;53015;50.046;8.238;2023-10-09T02:37:34;14.22;95.56
66213;SHT31;53015;50.046;8.238;2023-10-09T02:40:00;14.13;95.68
66213;SHT31;53015;50.046;8.238;2023-10-09T02:42:25;14.17;95.61
66213;SHT31;53015;50.046;8.238;2023-10-09T02:44:51;14.16;95.65
66213;SHT31;53015;50.046;8.238;2023-10-09T02:47:17;14.17;95.37
66213;SHT31;53015;50.046;8.238;2023-10-09T02:49:43;14.19;95.24
66213;SHT31;53015;50.046;8.238;2023-10-09T02:52:09;14.16;95.21
66213;SHT31;53015;50.046;8.238;2023-10-09T02:54:35;14.15;95.45
66213;SHT31;53015;50.046;8.238;2023-10-09T02:57:01;14.05;95.76
66213;SHT31;53015;50.046;8.238;2023-10-09T02:59:27;13.92;95.83
66213;SHT31;53015;50.046;8.238;2023-10-09T03:01:52;13.69;96.49
66213;SHT31;53015;50.046;8.238;2023-10-09T03:04:18;13.72;96.31
66213;SHT31;53015;50.046;8.238;2023-10-09T03:06:45;13.86;96.24
66213;SHT31;53015;50.046;8.238;2023-10-09T03:09:10;13.83;96.25
66213;SHT31;53015;50.046;8.238;2023-10-09T03:11:36;13.83;96.34
66213;SHT31;53015;50.046;8.238;2023-10-09T03:14:01;13.98;95.90
66213;SHT31;53015;50.046;8.238;2023-10-09T03:16:27;14.01;95.81
66213;SHT31;53015;50.046;8.238;2023-10-09T03:18:53;13.92;95.52
66213;SHT31;53015;50.046;8.238;2023-10-09T03:21:18;13.98;95.76
66213;SHT31;53015;50.046;8.238;2023-10-09T03:23:46;13.82;96.04
66213;SHT31;53015;50.046;8.238;2023-10-09T03:26:11;13.89;96.11
66213;SHT31;53015;50.046;8.238;2023-10-09T03:28:37;13.88;95.55
66213;SHT31;53015;50.046;8.238;2023-10-09T03:31:02;13.98;95.70
66213;SHT31;53015;50.046;8.238;2023-10-09T03:33:28;13.99;95.67
66213;SHT31;53015;50.046;8.238;2023-10-09T03:35:53;14.06;95.71
66213;SHT31;53015;50.046;8.238;2023-10-09T03:38:19;14.02;95.61
66213;SHT31;53015;50.046;8.238;2023-10-09T03:40:45;13.96;95.90
66213;SHT31;53015;50.046;8.238;2023-10-09T03:43:11;13.82;95.87
66213;SHT31;53015;50.046;8.238;2023-10-09T03:45:36;13.68;96.53
66213;SHT31;53015;50.046;8.238;2023-10-09T03:48:02;13.67;96.75
66213;SHT31;53015;50.046;8.238;2023-10-09T03:50:28;13.65;96.43
66213;SHT31;53015;50.046;8.238;2023-10-09T03:52:54;13.81;96.58
66213;SHT31;53015;50.046;8.238;2023-10-09T03:55:19;13.83;96.35
66213;SHT31;53015;50.046;8.238;2023-10-09T03:57:46;13.95;96.04
66213;SHT31;53015;50.046;8.238;2023-10-09T04:00:12;13.90;95.77
66213;SHT31;53015;50.046;8.238;2023-10-09T04:02:38;13.98;95.83
66213;SHT31;53015;50.046;8.238;2023-10-09T04:05:04;13.96;95.59
66213;SHT31;53015;50.046;8.238;2023-10-09T04:07:29;13.98;95.75
66213;SHT31;53015;50.046;8.238;2023-10-09T04:09:55;14.04;95.64
66213;SHT31;53015;50.046;8.238;2023-10-09T04:12:20;13.90;95.48
66213;SHT31;53015;50.046;8.238;2023-10-09T04:14:47;13.94;95.60
66213;SHT31;53015;50.046;8.238;2023-10-09T04:17:13;13.78;96.05
66213;SHT31;53015;50.046;8.238;2023-10-09T04:19:38;13.86;95.99
66213;SHT31;53015;50.046;8.238;2023-10-09T04:22:04;13.95;95.74
66213;SHT31;53015;50.046;8.238;2023-10-09T04:24:29;13.96;95.56
66213;SHT31;53015;50.046;8.238;2023-10-09T04:26:54;13.99;95.64
66213;SHT31;53015;50.046;8.238;2023-10-09T04:29:20;14.04;95.47
66213;SHT31;53015;50.046;8.238;2023-10-09T04:31:47;14.02;95.30
66213;SHT31;53015;50.046;8.238;2023-10-09T04:34:12;13.92;95.49
66213;SHT31;53015;50.046;8.238;2023-10-09T04:36:38;14.04;95.69
66213;SHT31;53015;50.046;8.238;2023-10-09T04:39:04;13.96;95.83
66213;SHT31;53015;50.046;8.238;2023-10-09T04:41:29;14.02;95.38
66213;SHT31;53015;50.046;8.238;2023-10-09T04:43:55;14.04;95.67
66213;SHT31;53015;50.046;8.238;2023-10-09T04:46:20;14.06;95.68
66213;SHT31;53015;50.046;8.238;2023-10-09T04:48:47;14.01;95.72
66213;SHT31;53015;50.046;8.238;2023-10-09T04:51:14;14.08;95.62
66213;SHT31;53015;50.046;8.238;2023-10-09T04:53:40;13.92;95.76
66213;SHT31;53015;50.046;8.238;2023-10-09T04:56:06;13.96;96.07
66213;SHT31;53015;50.046;8.238;2023-10-09T04:58:31;13.92;95.98
66213;SHT31;53015;50.046;8.238;2023-10-09T05:00:56;13.96;95.97
66213;SHT31;53015;50.046;8.238;2023-10-09T05:03:22;13.95;96.05
66213;SHT31;53015;50.046;8.238;2023-10-09T05:05:49;14.08;95.92
66213;SHT31;53015;50.046;8.238;2023-10-09T05:08:15;13.99;95.87
66213;SHT31;53015;50.046;8.238;2023-10-09T05:10:41;13.99;95.79
66213;SHT31;53015;50.046;8.238;2023-10-09T05:13:06;13.98;96.09
66213;SHT31;53015;50.046;8.238;2023-10-09T05:15:32;14.04;96.12
66213;SHT31;53015;50.046;8.238;2023-10-09T05:17:57;14.10;95.90
66213;SHT31;53015;50.046;8.238;2023-10-09T05:20:23;14.12;95.82
66213;SHT31;53015;50.046;8.238;2023-10-09T05:22:50;14.16;95.85
66213;SHT31;53015;50.046;8.238;2023-10-09T05:25:15;14.10;95.65
66213;SHT31;53015;50.046;8.238;2023-10-09T05:27:42;14.16;95.91
66213;SHT31;53015;50.046;8.238;2023-10-09T05:30:08;14.06;96.06
66213;SHT31;53015;50.046;8.238;2023-10-09T05:32:33;14.10;96.05
66213;SHT31;53015;50.046;8.238;2023-10-09T05:34:59;14.15;95.88
66213;SHT31;53015;50.046;8.238;2023-10-09T05:37:24;14.09;96.22
66213;SHT31;53015;50.046;8.238;2023-10-09T05:39:52;14.10;96.00
66213;SHT31;53015;50.046;8.238;2023-10-09T05:42:18;14.16;95.85
66213;SHT31;53015;50.046;8.238;2023-10-09T05:44:43;14.10;95.70
66213;SHT31;53015;50.046;8.238;2023-10-09T05:47:09;14.13;96.04
66213;SHT31;53015;50.046;8.238;2023-10-09T05:49:34;14.10;95.94
66213;SHT31;53015;50.046;8.238;2023-10-09T05:52:00;14.08;95.83
66213;SHT31;53015;50.046;8.238;2023-10-09T05:54:25;14.06;96.09
66213;SHT31;53015;50.046;8.238;2023-10-09T05:56:52;14.08;96.04
66213;SHT31;53015;50.046;8.238;2023-10-09T05:59:17;14.22;95.69
66213;SHT31;53015;50.046;8.238;2023-10-09T06:01:43;14.12;95.53
66213;SHT31;53015;50.046;8.238;2023-10-09T06:04:08;14.08;96.25
66213;SHT31;53015;50.046;8.238;2023-10-09T06:06:34;14.10;96.11
66213;SHT31;53015;50.046;8.238;2023-10-09T06:09:01;14.24;95.53
66213;SHT31;53015;50.046;8.238;2023-10-09T06:11:26;14.22;95.62
66213;SHT31;53015;50.046;8.238;2023-10-09T06:13:53;14.26;95.71
66213;SHT31;53015;50.046;8.238;2023-10-09T06:16:19;14.29;95.24
66213;SHT31;53015;50.046;8.238;2023-10-09T06:18:45;14.29;95.42
66213;SHT31;53015;50.046;8.238;2023-10-09T06:21:10;14.34;95.58
66213;SHT31;53015;50.046;8.238;2023-10-09T06:23:36;14.34;95.65
66213;SHT31;53015;50.046;8.238;2023-10-09T06:26:01;14.38;95.51
66213;SHT31;53015;50.046;8.238;2023-10-09T06:28:27;14.38;95.41
66213;SHT31;53015;50.046;8.238;2023-10-09T06:30:54;14.24;95.78
66213;SHT31;53015;50.046;8.238;2023-10-09T06:33:19;14.29;95.99
66213;SHT31;53015;50.046;8.238;2023-10-09T06:35:46;14.50;95.52
66213;SHT31;53015;50.046;8.238;2023-10-09T06:38:11;14.59;95.25
66213;SHT31;53015;50.046;8.238;2023-10-09T06:40:38;14.51;95.38
66213;SHT31;53015;50.046;8.238;2023-10-09T06:43:04;14.51;95.56
66213;SHT31;53015;50.046;8.238;2023-10-09T06:45:29;14.59;95.21
66213;SHT31;53015;50.046;8.238;2023-10-09T06:47:56;14.57;95.40
66213;SHT31;53015;50.046;8.238;2023-10-09T06:50:22;14.63;95.33
66213;SHT31;53015;50.046;8.238;2023-10-09T06:52:48;14.65;95.44
66213;SHT31;53015;50.046;8.238;2023-10-09T06:55:14;14.68;95.10
66213;SHT31;53015;50.046;8.238;2023-10-09T06:57:39;14.67;95.38
66213;SHT31;53015;50.046;8.238;2023-10-09T07:00:06;14.54;95.80
66213;SHT31;53015;50.046;8.238;2023-10-09T07:02:31;14.63;96.00
66213;SHT31;53015;50.046;8.238;2023-10-09T07:04:58;14.63;95.90
66213;SHT31;53015;50.046;8.238;2023-10-09T07:07:23;14.70;95.97
66213;SHT31;53015;50.046;8.238;2023-10-09T07:09:49;14.74;95.95
66213;SHT31;53015;50.046;8.238;2023-10-09T07:12:15;14.74;95.57
66213;SHT31;53015;50.046;8.238;2023-10-09T07:14:40;14.77;95.48
66213;SHT31;53015;50.046;8.238;2023-10-09T07:17:07;14.93;95.07
66213;SHT31;53015;50.046;8.238;2023-10-09T07:19:33;15.03;94.54
66213;SHT31;53015;50.046;8.238;2023-10-09T07:22:00;15.09;94.74
66213;SHT31;53015;50.046;8.238;2023-10-09T07:24:26;15.13;94.66
66213;SHT31;53015;50.046;8.238;2023-10-09T07:26:52;15.23;94.42
66213;SHT31;53015;50.046;8.238;2023-10-09T07:29:18;15.33;94.41
66213;SHT31;53015;50.046;8.238;2023-10-09T07:31:43;15.30;94.49
66213;SHT31;53015;50.046;8.238;2023-10-09T07:34:09;15.47;94.01
66213;SHT31;53015;50.046;8.238;2023-10-09T07:36:34;15.39;94.59
66213;SHT31;53015;50.046;8.238;2023-10-09T07:39:02;15.49;94.77
66213;SHT31;53015;50.046;8.238;2023-10-09T07:41:32;15.54;94.12
66213;SHT31;53015;50.046;8.238;2023-10-09T07:43:57;15.43;93.97
66213;SHT31;53015;50.046;8.238;2023-10-09T07:46:23;15.42;93.96
66213;SHT31;53015;50.046;8.238;2023-10-09T07:48:48;15.42;93.47
66213;SHT31;53015;50.046;8.238;2023-10-09T07:51:14;15.51;93.88
66213;SHT31;53015;50.046;8.238;2023-10-09T07:53:40;15.71;93.09
66213;SHT31;53015;50.046;8.238;2023-10-09T07:56:07;15.80;93.02
66213;SHT31;53015;50.046;8.238;2023-10-09T07:58:33;15.85;92.81
66213;SHT31;53015;50.046;8.238;2023-10-09T08:00:58;16.01;92.00
66213;SHT31;53015;50.046;8.238;2023-10-09T08:03:24;16.22;92.10
66213;SHT31;53015;50.046;8.238;2023-10-09T08:05:50;16.39;90.97
66213;SHT31;53015;50.046;8.238;2023-10-09T08:08:15;16.57;91.02
66213;SHT31;53015;50.046;8.238;2023-10-09T08:10:41;16.61;90.52
66213;SHT31;53015;50.046;8.238;2023-10-09T08:13:07;16.64;90.76
66213;SHT31;53015;50.046;8.238;2023-10-09T08:15:33;16.66;90.63
66213;SHT31;53015;50.046;8.238;2023-10-09T08:17:58;16.68;90.65
66213;SHT31;53015;50.046;8.238;2023-10-09T08:20:24;16.67;90.13
66213;SHT31;53015;50.046;8.238;2023-10-09T08:22:51;16.59;89.18
66213;SHT31;53015;50.046;8.238;2023-10-09T08:25:17;16.75;89.56
66213;SHT31;53015;50.046;8.238;2023-10-09T08:27:43;17.00;88.76
66213;SHT31;53015;50.046;8.238;2023-10-09T08:30:10;17.05;88.09
66213;SHT31;53015;50.046;8.238;2023-10-09T08:32:35;17.07;86.83
66213;SHT31;53015;50.046;8.238;2023-10-09T08:35:01;17.04;86.63
66213;SHT31;53015;50.046;8.238;2023-10-09T08:37:26;17.15;85.82
66213;SHT31;53015;50.046;8.238;2023-10-09T08:39:52;17.07;86.25
66213;SHT31;53015;50.046;8.238;2023-10-09T08:42:18;17.16;85.47
66213;SHT31;53015;50.046;8.238;2023-10-09T08:44:44;17.12;86.18
66213;SHT31;53015;50.046;8.238;2023-10-09T08:47:12;17.25;85.74
66213;SHT31;53015;50.046;8.238;2023-10-09T08:49:38;17.16;86.61
66213;SHT31;53015;50.046;8.238;2023-10-09T08:52:04;17.23;87.47
66213;SHT31;53015;50.046;8.238;2023-10-09T08:54:29;17.25;87.79
66213;SHT31;53015;50.046;8.238;2023-10-09T08:56:55;17.28;88.17
66213;SHT31;53015;50.046;8.238;2023-10-09T08:59:21;17.08;87.48
66213;SHT31;53015;50.046;8.238;2023-10-09T09:01:47;17.15;87.07
66213;SHT31;53015;50.046;8.238;2023-10-09T09:04:34;17.19;86.84
66213;SHT31;53015;50.046;8.238;2023-10-09T09:06:59;17.38;86.60
66213;SHT31;53015;50.046;8.238;2023-10-09T09:09:24;17.50;86.68
66213;SHT31;53015;50.046;8.238;2023-10-09T09:11:50;17.65;86.23
66213;SHT31;53015;50.046;8.238;2023-10-09T09:14:16;17.53;86.30
66213;SHT31;53015;50.046;8.238;2023-10-09T09:16:41;17.36;87.21
66213;SHT31;53015;50.046;8.238;2023-10-09T09:19:07;17.36;87.05
66213;SHT31;53015;50.046;8.238;2023-10-09T09:21:36;17.40;87.91
66213;SHT31;53015;50.046;8.238;2023-10-09T09:24:01;17.53;86.04
66213;SHT31;53015;50.046;8.238;2023-10-09T09:26:35;17.56;86.69
66213;SHT31;53015;50.046;8.238;2023-10-09T09:29:01;17.67;86.20
66213;SHT31;53015;50.046;8.238;2023-10-09T09:31:26;17.81;85.72
66213;SHT31;53015;50.046;8.238;2023-10-09T09:33:56;17.90;85.35
66213;SHT31;53015;50.046;8.238;2023-10-09T09:36:21;17.95;85.73
66213;SHT31;53015;50.046;8.238;2023-10-09T09:38:48;18.02;86.05
66213;SHT31;53015;50.046;8.238;2023-10-09T09:41:14;17.94;86.20
66213;SHT31;53015;50.046;8.238;2023-10-09T09:43:40;18.04;85.03
66213;SHT31;53015;50.046;8.238;2023-10-09T09:46:07;18.00;85.51
66213;SHT31;53015;50.046;8.238;2023-10-09T09:48:37;18.11;84.78
66213;SHT31;53015;50.046;8.238;2023-10-09T09:51:03;18.22;83.57
66213;SHT31;53015;50.046;8.238;2023-10-09T09:53:29;18.28;84.02
66213;SHT31;53015;50.046;8.238;2023-10-09T09:55:56;18.19;84.71
66213;SHT31;53015;50.046;8.238;2023-10-09T09:58:21;18.31;84.12
66213;SHT31;53015;50.046;8.238;2023-10-09T10:00:49;18.33;83.92
66213;SHT31;53015;50.046;8.238;2023-10-09T10:03:18;18.36;84.26
66213;SHT31;53015;50.046;8.238;2023-10-09T10:05:45;18.36;84.12
66213;SHT31;53015;50.046;8.238;2023-10-09T10:08:15;18.25;84.03
66213;SHT31;53015;50.046;8.238;2023-10-09T10:10:41;18.55;84.42
66213;SHT31;53015;50.046;8.238;2023-10-09T10:13:08;18.71;83.37
66213;SHT31;53015;50.046;8.238;2023-10-09T10:15:58;18.73;83.33
66213;SHT31;53015;50.046;8.238;2023-10-09T10:18:24;18.73;83.79
66213;SHT31;53015;50.046;8.238;2023-10-09T10:21:12;18.90;83.23
66213;SHT31;53015;50.046;8.238;2023-10-09T10:23:37;18.97;83.69
66213;SHT31;53015;50.046;8.238;2023-10-09T10:26:16;19.07;83.11
66213;SHT31;53015;50.046;8.238;2023-10-09T10:28:43;19.15;83.51
66213;SHT31;53015;50.046;8.238;2023-10-09T10:31:09;19.21;83.73
66213;SHT31;53015;50.046;8.238;2023-10-09T10:34:05;19.53;82.39
66213;SHT31;53015;50.046;8.238;2023-10-09T10:36:31;19.76;81.24
66213;SHT31;53015;50.046;8.238;2023-10-09T10:38:59;19.90;80.16
66213;SHT31;53015;50.046;8.238;2023-10-09T10:41:25;19.83;79.98
66213;SHT31;53015;50.046;8.238;2023-10-09T10:43:52;19.89;80.78
66213;SHT31;53015;50.046;8.238;2023-10-09T10:46:18;19.97;79.72
66213;SHT31;53015;50.046;8.238;2023-10-09T10:48:44;20.18;78.61
66213;SHT31;53015;50.046;8.238;2023-10-09T10:51:10;20.27;78.72
66213;SHT31;53015;50.046;8.238;2023-10-09T10:53:35;20.25;79.04
66213;SHT31;53015;50.046;8.238;2023-10-09T10:56:01;20.14;79.46
66213;SHT31;53015;50.046;8.238;2023-10-09T10:58:27;20.25;79.96
66213;SHT31;53015;50.046;8.238;2023-10-09T11:00:54;20.32;79.89
66213;SHT31;53015;50.046;8.238;2023-10-09T11:03:20;20.36;79.95
66213;SHT31;53015;50.046;8.238;2023-10-09T11:05:46;20.31;79.89
66213;SHT31;53015;50.046;8.238;2023-10-09T11:08:12;20.39;78.60
66213;SHT31;53015;50.046;8.238;2023-10-09T11:10:37;20.53;78.68
66213;SHT31;53015;50.046;8.238;2023-10-09T11:13:03;20.80;76.51
66213;SHT31;53015;50.046;8.238;2023-10-09T11:15:33;20.97;76.60
66213;SHT31;53015;50.046;8.238;2023-10-09T11:18:01;21.23;76.13
66213;SHT31;53015;50.046;8.238;2023-10-09T11:20:27;21.39;75.77
66213;SHT31;53015;50.046;8.238;2023-10-09T11:22:52;21.54;75.77
66213;SHT31;53015;50.046;8.238;2023-10-09T11:25:18;21.30;75.74
66213;SHT31;53015;50.046;8.238;2023-10-09T11:27:44;21.31;75.07
66213;SHT31;53015;50.046;8.238;2023-10-09T11:30:10;21.52;72.89
66213;SHT31;53015;50.046;8.238;2023-10-09T11:32:36;21.65;72.01
66213;SHT31;53015;50.046;8.238;2023-10-09T11:35:14;21.65;72.23
66213;SHT31;53015;50.046;8.238;2023-10-09T11:37:39;21.59;73.27
66213;SHT31;53015;50.046;8.238;2023-10-09T11:40:06;21.67;73.54
66213;SHT31;53015;50.046;8.238;2023-10-09T11:42:31;21.78;74.24
66213;SHT31;53015;50.046;8.238;2023-10-09T11:44:57;21.73;73.15
66213;SHT31;53015;50.046;8.238;2023-10-09T11:47:22;21.73;73.47
66213;SHT31;53015;50.046;8.238;2023-10-09T11:49:49;22.03;73.12
66213;SHT31;53015;50.046;8.238;2023-10-09T11:52:16;22.04;72.11
66213;SHT31;53015;50.046;8.238;2023-10-09T11:54:41;22.24;71.58
66213;SHT31;53015;50.046;8.238;2023-10-09T11:57:07;22.33;69.91
66213;SHT31;53015;50.046;8.238;2023-10-09T11:59:34;22.33;71.33
66213;SHT31;53015;50.046;8.238;2023-10-09T12:01:59;22.40;69.75
66213;SHT31;53015;50.046;8.238;2023-10-09T12:04:25;22.51;69.57
66213;SHT31;53015;50.046;8.238;2023-10-09T12:06:51;22.57;69.75
66213;SHT31;53015;50.046;8.238;2023-10-09T12:09:17;22.40;68.50
66213;SHT31;53015;50.046;8.238;2023-10-09T12:11:43;22.38;69.77
66213;SHT31;53015;50.046;8.238;2023-10-09T12:14:08;22.48;68.71
66213;SHT31;53015;50.046;8.238;2023-10-09T12:16:34;22.47;69.39
66213;SHT31;53015;50.046;8.238;2023-10-09T12:18:59;22.49;68.28
66213;SHT31;53015;50.046;8.238;2023-10-09T12:21:25;22.64;67.80
66213;SHT31;53015;50.046;8.238;2023-10-09T12:23:50;22.75;68.89
66213;SHT31;53015;50.046;8.238;2023-10-09T12:26:17;22.72;67.38
66213;SHT31;53015;50.046;8.238;2023-10-09T12:28:44;22.65;68.60
66213;SHT31;53015;50.046;8.238;2023-10-09T12:31:10;22.72;66.67
66213;SHT31;53015;50.046;8.238;2023-10-09T12:33:35;22.75;68.37
66213;SHT31;53015;50.046;8.238;2023-10-09T12:36:01;22.72;68.15
66213;SHT31;53015;50.046;8.238;2023-10-09T12:38:27;22.65;66.96
66213;SHT31;53015;50.046;8.238;2023-10-09T12:40:52;22.69;67.34
66213;SHT31;53015;50.046;8.238;2023-10-09T12:43:21;22.73;65.94
66213;SHT31;53015;50.046;8.238;2023-10-09T12:45:46;22.72;66.52
66213;SHT31;53015;50.046;8.238;2023-10-09T12:48:12;22.64;66.65
66213;SHT31;53015;50.046;8.238;2023-10-09T12:50:37;22.71;67.16
66213;SHT31;53015;50.046;8.238;2023-10-09T12:53:03;22.72;67.75
66213;SHT31;53015;50.046;8.238;2023-10-09T12:55:28;22.68;65.81
66213;SHT31;53015;50.046;8.238;2023-10-09T12:57:54;22.75;64.96
66213;SHT31;53015;50.046;8.238;2023-10-09T13:00:21;22.84;65.32
66213;SHT31;53015;50.046;8.238;2023-10-09T13:02:47;22.86;63.52
66213;SHT31;53015;50.046;8.238;2023-10-09T13:05:12;22.88;63.61
66213;SHT31;53015;50.046;8.238;2023-10-09T13:07:38;22.96;63.05
66213;SHT31;53015;50.046;8.238;2023-10-09T13:10:04;23.09;64.85
66213;SHT31;53015;50.046;8.238;2023-10-09T13:12:29;23.04;64.22
66213;SHT31;53015;50.046;8.238;2023-10-09T13:14:55;23.10;64.46
66213;SHT31;53015;50.046;8.238;2023-10-09T13:17:22;23.13;64.15
66213;SHT31;53015;50.046;8.238;2023-10-09T13:19:48;23.17;65.84
66213;SHT31;53015;50.046;8.238;2023-10-09T13:22:13;23.13;66.97
66213;SHT31;53015;50.046;8.238;2023-10-09T13:24:39;23.06;63.88
66213;SHT31;53015;50.046;8.238;2023-10-09T13:27:05;23.22;60.72
66213;SHT31;53015;50.046;8.238;2023-10-09T13:29:30;23.24;60.47
66213;SHT31;53015;50.046;8.238;2023-10-09T13:31:56;23.23;61.12
66213;SHT31;53015;50.046;8.238;2023-10-09T13:34:23;23.20;62.36
66213;SHT31;53015;50.046;8.238;2023-10-09T13:36:48;23.23;59.94
66213;SHT31;53015;50.046;8.238;2023-10-09T13:39:14;23.24;60.47
66213;SHT31;53015;50.046;8.238;2023-10-09T13:41:39;23.33;61.27
66213;SHT31;53015;50.046;8.238;2023-10-09T13:44:05;23.39;62.65
66213;SHT31;53015;50.046;8.238;2023-10-09T13:46:31;23.33;62.76
66213;SHT31;53015;50.046;8.238;2023-10-09T13:48:57;23.39;64.09
66213;SHT31;53015;50.046;8.238;2023-10-09T13:51:24;23.41;61.76
66213;SHT31;53015;50.046;8.238;2023-10-09T13:53:50;23.30;65.44
66213;SHT31;53015;50.046;8.238;2023-10-09T13:56:16;23.30;63.15
66213;SHT31;53015;50.046;8.238;2023-10-09T13:58:42;23.34;62.38
66213;SHT31;53015;50.046;8.238;2023-10-09T14:01:08;23.26;61.45
66213;SHT31;53015;50.046;8.238;2023-10-09T14:03:33;23.22;61.42
66213;SHT31;53015;50.046;8.238;2023-10-09T14:05:59;23.19;61.32
66213;SHT31;53015;50.046;8.238;2023-10-09T14:08:26;23.16;63.41
66213;SHT31;53015;50.046;8.238;2023-10-09T14:10:52;23.12;64.41
66213;SHT31;53015;50.046;8.238;2023-10-09T14:13:17;23.14;61.67
66213;SHT31;53015;50.046;8.238;2023-10-09T14:15:43;23.16;61.01
66213;SHT31;53015;50.046;8.238;2023-10-09T14:18:08;23.13;64.08
66213;SHT31;53015;50.046;8.238;2023-10-09T14:20:34;23.10;61.73
66213;SHT31;53015;50.046;8.238;2023-10-09T14:23:00;22.98;66.67
66213;SHT31;53015;50.046;8.238;2023-10-09T14:25:28;22.93;64.45
66213;SHT31;53015;50.046;8.238;2023-10-09T14:27:54;22.88;62.50
66213;SHT31;53015;50.046;8.238;2023-10-09T14:30:20;23.00;66.05
66213;SHT31;53015;50.046;8.238;2023-10-09T14:32:45;22.88;67.00
66213;SHT31;53015;50.046;8.238;2023-10-09T14:35:11;22.81;65.96
66213;SHT31;53015;50.046;8.238;2023-10-09T14:37:36;22.72;66.99
66213;SHT31;53015;50.046;8.238;2023-10-09T14:40:02;22.76;66.39
66213;SHT31;53015;50.046;8.238;2023-10-09T14:42:28;22.73;65.93
66213;SHT31;53015;50.046;8.238;2023-10-09T14:44:54;22.65;66.95
66213;SHT31;53015;50.046;8.238;2023-10-09T14:47:19;22.58;66.30
66213;SHT31;53015;50.046;8.238;2023-10-09T14:49:47;22.58;66.61
66213;SHT31;53015;50.046;8.238;2023-10-09T14:52:14;22.49;66.99
66213;SHT31;53015;50.046;8.238;2023-10-09T14:54:39;22.48;66.86
66213;SHT31;53015;50.046;8.238;2023-10-09T14:57:05;22.48;68.66
66213;SHT31;53015;50.046;8.238;2023-10-09T14:59:32;22.37;68.67
66213;SHT31;53015;50.046;8.238;2023-10-09T15:01:58;22.29;68.76
66213;SHT31;53015;50.046;8.238;2023-10-09T15:04:23;22.27;68.81
66213;SHT31;53015;50.046;8.238;2023-10-09T15:06:49;22.22;68.32
66213;SHT31;53015;50.046;8.238;2023-10-09T15:09:15;22.14;68.29
66213;SHT31;53015;50.046;8.238;2023-10-09T15:11:40;22.13;68.32
66213;SHT31;53015;50.046;8.238;2023-10-09T15:14:06;22.11;68.20
66213;SHT31;53015;50.046;8.238;2023-10-09T15:16:33;22.00;70.29
66213;SHT31;53015;50.046;8.238;2023-10-09T15:18:59;22.02;69.88
66213;SHT31;53015;50.046;8.238;2023-10-09T15:21:25;22.06;69.00
66213;SHT31;53015;50.046;8.238;2023-10-09T15:23:50;22.16;69.76